Terminal Aerodrome Forecast
Issued by NWS Cheyenne, WY

Current Version | Previous Version | Text Only | Print | Product List | Glossary On
Versions: 1 2 3 4 5 6 7 8 9 10 11 12 13 14 15 16 17 18 19 20 21 22 23 24 25 26 27 28 29 30 31 32 33 34 35 36 37 38 39 40
000
FTUS45 KCYS 231100
TAFCYS
TAF
KCYS 231121Z 2312/2412 23007KT P6SM SCT011 BKN080
     FM231500 25008KT P6SM SCT020 BKN090
     FM232000 26015G23KT P6SM VCTS SCT080CB
     FM240000 27013KT P6SM SCT150=

USA.gov is the U.S. government's official web portal to all federal, state and local government web resources and services.